Time;durP1;ratioP1;P1;durP2;ratioP2;P2;SDS_P1;SDS_P2;PMS_P1;PMS_P2;Temp;Humidity;BMP_temperature;BMP_pressure;BME280_temperature;BME280_humidity;BME280_pressure;Samples;Min_cycle;Max_cycle;Signal;HPM_P1;HPM_P2
2022/11/23 00:00:27;;;;;;;12.63;5.05;;;9.70;65.80;;;;;;6107070;29;20050;-63
2022/11/23 00:03:28;;;;;;;11.70;5.28;;;9.80;65.90;;;;;;6106380;29;20082;-63
2022/11/23 00:06:29;;;;;;;15.55;5.03;;;9.70;65.90;;;;;;6123210;29;20031;-62
2022/11/23 00:09:29;;;;;;;11.60;4.63;;;9.70;65.90;;;;;;6104635;29;20031;-63
2022/11/23 00:12:30;;;;;;;15.45;5.55;;;9.70;66.10;;;;;;6101625;29;20106;-62
2022/11/23 00:15:31;;;;;;;13.98;4.80;;;9.60;66.20;;;;;;6104011;29;20485;-62
2022/11/23 00:18:32;;;;;;;12.27;4.90;;;9.60;66.30;;;;;;6120704;29;20054;-63
2022/11/23 00:21:33;;;;;;;12.77;5.72;;;9.60;66.50;;;;;;6103646;29;20115;-63
2022/11/23 00:24:34;;;;;;;14.88;5.65;;;9.50;66.50;;;;;;6087636;29;20057;-62
2022/11/23 00:27:35;;;;;;;12.65;5.32;;;9.50;66.60;;;;;;6121815;29;20040;-62
2022/11/23 00:30:36;;;;;;;17.35;5.10;;;9.40;66.60;;;;;;6106366;29;20032;-63
2022/11/23 00:33:39;;;;;;;11.13;4.78;;;9.40;66.70;;;;;;6089731;29;20042;-63
2022/11/23 00:36:39;;;;;;;13.48;4.70;;;9.40;66.60;;;;;;6123451;29;20051;-63
2022/11/23 00:39:41;;;;;;;11.23;4.97;;;9.30;66.50;;;;;;6106465;29;20039;-62
2022/11/23 00:42:42;;;;;;;7.05;4.30;;;9.30;66.40;;;;;;6089717;29;20043;-63
2022/11/23 00:45:43;;;;;;;12.77;4.57;;;9.30;66.50;;;;;;6103337;29;20473;-63
2022/11/23 00:48:45;;;;;;;8.90;3.75;;;9.20;66.40;;;;;;6103452;29;20110;-64
2022/11/23 00:51:47;;;;;;;10.05;4.90;;;9.20;66.50;;;;;;6120580;29;20032;-63
2022/11/23 00:54:48;;;;;;;10.65;4.05;;;9.10;66.50;;;;;;6103609;29;20035;-63
2022/11/23 00:57:48;;;;;;;12.27;4.38;;;9.10;66.60;;;;;;6110584;29;20425;-62
2022/11/23 01:00:50;;;;;;;14.93;5.15;;;9.10;66.60;;;;;;6094748;29;20135;-62
2022/11/23 01:03:53;;;;;;;12.13;4.82;;;9.10;66.70;;;;;;6094137;29;20388;-62
2022/11/23 01:06:58;;;;;;;12.18;4.25;;;9.20;66.70;;;;;;6126201;29;20044;-63
2022/11/23 01:09:59;;;;;;;9.65;3.90;;;9.20;66.70;;;;;;6106161;29;20563;-64
2022/11/23 01:13:00;;;;;;;8.90;3.78;;;9.20;66.60;;;;;;6105674;29;20098;-63
2022/11/23 01:16:00;;;;;;;8.30;3.50;;;9.30;66.60;;;;;;6091485;29;20046;-62
2022/11/23 01:19:04;;;;;;;8.50;3.30;;;9.30;66.30;;;;;;6108839;29;20039;-63
2022/11/23 01:22:05;;;;;;;9.75;3.95;;;9.30;66.10;;;;;;6109720;29;20345;-63
2022/11/23 01:25:06;;;;;;;11.63;4.55;;;9.30;66.00;;;;;;6123590;29;20071;-63
2022/11/23 01:28:08;;;;;;;14.25;4.18;;;9.20;66.00;;;;;;6108031;29;20032;-63
2022/11/23 01:31:11;;;;;;;10.68;4.20;;;9.20;66.10;;;;;;6108476;29;20039;-62
2022/11/23 01:34:13;;;;;;;11.35;4.95;;;9.30;66.10;;;;;;6090401;29;20336;-63
2022/11/23 01:37:14;;;;;;;12.05;5.00;;;9.30;66.10;;;;;;6109520;29;20064;-63
2022/11/23 01:40:15;;;;;;;9.55;4.68;;;9.30;66.20;;;;;;6093690;29;20042;-63
2022/11/23 01:43:17;;;;;;;21.52;4.68;;;9.30;66.20;;;;;;6124583;29;20154;-63
2022/11/23 01:46:20;;;;;;;12.10;4.82;;;9.30;66.20;;;;;;6125755;29;20047;-63
2022/11/23 01:49:22;;;;;;;10.77;3.85;;;9.40;66.30;;;;;;6092455;29;20051;-63
2022/11/23 01:52:25;;;;;;;6.68;3.70;;;9.40;66.30;;;;;;6093262;29;20126;-63
2022/11/23 01:55:26;;;;;;;16.40;4.55;;;9.40;66.30;;;;;;6093189;29;20535;-63
2022/11/23 01:58:33;;;;;;;8.20;3.92;;;9.50;66.10;;;;;;6107458;29;20028;-63
2022/11/23 02:01:34;;;;;;;5.88;2.72;;;9.50;66.00;;;;;;6121331;29;20356;-63
2022/11/23 02:04:39;;;;;;;7.28;2.72;;;9.60;66.00;;;;;;6108443;29;20035;-62
2022/11/23 02:07:41;;;;;;;9.05;3.65;;;9.60;65.90;;;;;;6118995;29;20043;-62
2022/11/23 02:10:42;;;;;;;8.05;3.08;;;9.60;65.70;;;;;;6091550;29;20500;-62
2022/11/23 02:13:47;;;;;;;9.88;3.35;;;9.70;65.60;;;;;;6105101;29;20027;-62
2022/11/23 02:16:48;;;;;;;13.77;3.55;;;9.70;65.50;;;;;;6106853;29;20036;-62
2022/11/23 02:20:01;;;;;;;8.68;4.53;;;9.70;65.40;;;;;;6105643;29;20373;-63
2022/11/23 02:23:29;;;;;;;9.23;4.43;;;9.70;65.40;;;;;;6103622;29;20036;-63
2022/11/23 02:26:33;;;;;;;6.85;3.45;;;9.60;65.40;;;;;;6104905;29;20363;-63
2022/11/23 02:29:37;;;;;;;11.60;4.40;;;9.60;65.40;;;;;;6119374;29;20043;-63
2022/11/23 02:32:38;;;;;;;8.75;4.40;;;9.60;65.50;;;;;;6088791;29;20508;-63
2022/11/23 02:35:57;;;;;;;15.48;4.22;;;9.60;65.60;;;;;;6087573;29;20036;-63
2022/11/23 02:39:02;;;;;;;13.73;4.80;;;9.60;65.70;;;;;;6120618;29;20890;-62
2022/11/23 02:42:04;;;;;;;15.32;5.22;;;9.50;65.70;;;;;;6104887;29;20036;-61
2022/11/23 02:45:14;;;;;;;14.70;5.10;;;9.50;65.70;;;;;;6109332;29;20479;-62
2022/11/23 02:48:14;;;;;;;13.23;3.97;;;9.40;65.80;;;;;;6105808;29;20078;-63
2022/11/23 02:51:15;;;;;;;9.50;4.47;;;9.40;65.90;;;;;;6104825;29;20040;-63
2022/11/23 02:54:16;;;;;;;11.02;4.10;;;9.30;65.90;;;;;;6105505;29;20054;-63
2022/11/23 02:57:17;;;;;;;7.80;3.97;;;9.30;66.00;;;;;;6105842;29;20035;-64
2022/11/23 03:00:20;;;;;;;8.93;4.13;;;9.30;66.10;;;;;;6089104;29;20040;-63
2022/11/23 03:03:21;;;;;;;10.25;3.72;;;9.30;66.10;;;;;;6102479;29;20368;-63
2022/11/23 03:06:22;;;;;;;8.38;3.63;;;9.20;66.20;;;;;;6120135;29;20047;-63
2022/11/23 03:09:24;;;;;;;7.80;3.38;;;9.20;66.10;;;;;;6103350;29;20449;-63
2022/11/23 03:12:25;;;;;;;9.43;3.65;;;9.20;66.00;;;;;;6103024;29;20038;-62
2022/11/23 03:15:27;;;;;;;6.57;3.17;;;9.20;65.90;;;;;;6102849;29;20064;-63
2022/11/23 03:18:28;;;;;;;8.27;2.72;;;9.10;65.80;;;;;;6118257;29;20039;-63
2022/11/23 03:21:29;;;;;;;8.70;3.85;;;9.10;65.90;;;;;;6104377;29;20099;-63
2022/11/23 03:24:30;;;;;;;11.10;3.90;;;9.10;65.90;;;;;;6120170;29;20480;-63
2022/11/23 03:27:33;;;;;;;12.68;4.57;;;9.00;66.00;;;;;;6103435;29;20368;-62
2022/11/23 03:30:34;;;;;;;11.07;4.00;;;9.00;66.10;;;;;;6087521;29;20040;-63
2022/11/23 03:33:38;;;;;;;11.35;5.22;;;8.90;66.30;;;;;;6102963;29;20851;-63
2022/11/23 03:36:39;;;;;;;9.13;4.43;;;8.90;66.50;;;;;;6104981;29;20035;-63
2022/11/23 03:39:40;;;;;;;12.85;4.43;;;8.80;66.80;;;;;;6105506;29;20035;-62
2022/11/23 03:43:14;;;;;;;9.00;3.97;;;8.80;67.10;;;;;;6066932;29;20048;-63
2022/11/23 03:46:15;;;;;;;16.45;3.42;;;8.80;67.20;;;;;;6069304;29;20573;-62
2022/11/23 03:49:16;;;;;;;9.55;3.72;;;8.80;67.30;;;;;;6068174;29;20049;-62
2022/11/23 03:52:17;;;;;;;8.73;3.58;;;8.80;67.40;;;;;;6063762;29;20052;-63
2022/11/23 03:55:18;;;;;;;7.82;3.95;;;8.80;67.30;;;;;;6054860;29;20438;-63
2022/11/23 03:58:19;;;;;;;9.98;3.40;;;8.90;67.30;;;;;;6055437;29;20081;-62
2022/11/23 04:01:21;;;;;;;9.40;3.63;;;8.90;67.20;;;;;;6056656;29;20040;-63
2022/11/23 04:04:28;;;;;;;14.68;3.85;;;8.90;67.20;;;;;;6052470;29;20041;-63
2022/11/23 04:07:46;;;;;;;11.25;4.15;;;9.00;67.20;;;;;;6050369;29;20097;-63
2022/11/23 04:10:47;;;;;;;15.52;4.50;;;9.00;67.10;;;;;;6050995;29;20064;-62
2022/11/23 04:13:52;;;;;;;6.32;3.70;;;9.00;66.90;;;;;;6056012;29;20571;-63
2022/11/23 04:16:53;;;;;;;10.27;3.92;;;9.00;66.70;;;;;;6052619;29;20052;-63
2022/11/23 04:19:54;;;;;;;6.88;3.60;;;9.00;66.60;;;;;;6100416;29;20042;-63
2022/11/23 04:22:55;;;;;;;6.68;3.03;;;8.90;66.60;;;;;;6119658;29;20120;-62
2022/11/23 04:25:57;;;;;;;8.88;3.83;;;8.90;66.60;;;;;;6104048;29;20050;-63
2022/11/23 04:28:58;;;;;;;7.05;3.13;;;8.80;66.70;;;;;;6103166;29;20386;-63
2022/11/23 04:31:59;;;;;;;6.60;3.70;;;8.70;67.00;;;;;;6124184;29;20040;-63
2022/11/23 04:35:00;;;;;;;14.68;3.85;;;8.70;67.30;;;;;;6109371;29;20035;-63
2022/11/23 04:38:01;;;;;;;10.30;4.03;;;8.60;67.40;;;;;;6110086;29;20051;-63
2022/11/23 04:41:04;;;;;;;11.50;4.20;;;8.60;67.40;;;;;;6107810;29;20035;-62
2022/11/23 04:44:06;;;;;;;9.27;3.58;;;8.60;67.50;;;;;;6108775;29;20035;-62
2022/11/23 04:47:12;;;;;;;9.55;3.67;;;8.60;67.50;;;;;;6101656;29;20068;-62
2022/11/23 04:50:13;;;;;;;6.57;3.45;;;8.70;67.40;;;;;;6079887;29;20108;-63
2022/11/23 04:53:14;;;;;;;10.25;4.30;;;8.70;67.30;;;;;;6070570;29;20041;-63
2022/11/23 04:56:20;;;;;;;9.15;3.55;;;8.70;67.20;;;;;;6080278;29;20377;-63
2022/11/23 04:59:22;;;;;;;11.07;4.07;;;8.70;67.10;;;;;;6082149;29;20045;-62
2022/11/23 05:02:23;;;;;;;10.25;3.35;;;8.70;67.00;;;;;;6080317;29;20040;-62
2022/11/23 05:05:30;;;;;;;8.83;3.57;;;8.70;67.00;;;;;;6081062;29;20063;-62
2022/11/23 05:08:32;;;;;;;13.27;3.38;;;8.60;67.10;;;;;;6066244;29;20036;-63
2022/11/23 05:11:51;;;;;;;7.85;3.33;;;8.70;67.20;;;;;;6078647;29;20037;-63
2022/11/23 05:14:52;;;;;;;6.20;3.20;;;8.70;67.20;;;;;;6077242;29;20123;-62
2022/11/23 05:18:05;;;;;;;9.10;4.53;;;8.70;67.30;;;;;;6059620;29;20043;-62
2022/11/23 05:21:06;;;;;;;7.80;3.75;;;8.80;67.30;;;;;;6062445;29;20055;-63
2022/11/23 05:24:07;;;;;;;5.47;2.92;;;8.80;67.20;;;;;;6080168;29;20048;-62
2022/11/23 05:27:08;;;;;;;11.80;3.15;;;8.90;67.10;;;;;;6077378;29;20064;-62
2022/11/23 05:30:10;;;;;;;6.25;3.22;;;8.90;66.90;;;;;;6078071;29;20037;-63
2022/11/23 05:33:11;;;;;;;6.85;3.55;;;8.90;66.70;;;;;;6061663;29;20041;-63
2022/11/23 05:36:13;;;;;;;13.80;4.15;;;8.90;66.70;;;;;;6076398;29;20095;-64
2022/11/23 05:39:15;;;;;;;10.93;3.40;;;8.90;66.70;;;;;;6078523;29;20076;-63
2022/11/23 05:42:17;;;;;;;7.55;3.55;;;8.90;66.70;;;;;;6062597;29;20040;-64
2022/11/23 05:45:19;;;;;;;5.53;3.25;;;8.90;66.40;;;;;;6078305;29;20053;-65
2022/11/23 05:48:25;;;;;;;8.43;4.35;;;8.90;66.40;;;;;;6107598;29;20496;-62
2022/11/23 05:51:32;;;;;;;8.23;3.50;;;8.80;66.40;;;;;;6105784;29;20047;-64
2022/11/23 05:54:33;;;;;;;9.95;3.85;;;8.80;66.60;;;;;;6098707;29;20384;-63
2022/11/23 05:57:41;;;;;;;;;;;8.90;66.70;;;;;;6109547;29;20032;-62
2022/11/23 06:00:42;;;;;;;5.15;3.08;;;8.80;66.60;;;;;;6107320;29;19922;-64
2022/11/23 06:03:43;;;;;;;3.67;2.58;;;8.80;66.60;;;;;;6104316;29;20437;-63
2022/11/23 06:06:44;;;;;;;6.20;2.85;;;8.80;66.70;;;;;;6088628;29;20103;-64
2022/11/23 06:09:45;;;;;;;10.68;3.05;;;8.80;66.70;;;;;;6105154;29;20043;-63
2022/11/23 06:12:46;;;;;;;6.65;3.75;;;8.80;66.90;;;;;;6103535;29;20035;-63
2022/11/23 06:15:51;;;;;;;7.57;3.47;;;8.90;66.90;;;;;;6086933;29;20114;-63
2022/11/23 06:18:57;;;;;;;6.88;3.35;;;8.90;66.80;;;;;;6105336;29;20031;-63
2022/11/23 06:21:58;;;;;;;10.40;3.90;;;8.90;66.80;;;;;;6105666;29;20034;-64
2022/11/23 06:25:02;;;;;;;7.78;4.30;;;8.90;66.80;;;;;;6103613;29;20050;-62
2022/11/23 06:28:04;;;;;;;6.38;3.55;;;9.00;66.90;;;;;;6103448;29;20048;-64
2022/11/23 06:31:13;;;;;;;6.93;3.58;;;9.00;66.70;;;;;;6092068;29;20039;-64
2022/11/23 06:34:14;;;;;;;7.63;4.13;;;9.00;66.40;;;;;;6106032;29;20659;-64
2022/11/23 06:37:15;;;;;;;8.13;3.50;;;9.00;66.40;;;;;;6106157;29;20040;-63
2022/11/23 06:40:20;;;;;;;10.88;3.35;;;8.90;66.30;;;;;;6092548;29;20044;-63
2022/11/23 06:43:24;;;;;;;8.07;3.60;;;8.90;66.50;;;;;;6106696;29;20070;-65
2022/11/23 06:46:25;;;;;;;6.70;3.25;;;8.80;66.70;;;;;;6104192;29;20058;-64
2022/11/23 06:49:27;;;;;;;7.22;3.35;;;8.80;66.90;;;;;;6092325;29;20035;-64
2022/11/23 06:52:45;;;;;;;7.75;3.25;;;8.80;67.10;;;;;;6106413;29;20361;-63
2022/11/23 06:55:46;;;;;;;10.63;3.08;;;8.80;67.20;;;;;;6106704;29;20040;-64
2022/11/23 06:58:49;;;;;;;8.32;3.30;;;8.80;67.20;;;;;;6108011;29;20510;-63
2022/11/23 07:01:55;;;;;;;7.88;3.20;;;8.80;67.20;;;;;;6106182;29;20046;-63
2022/11/23 07:04:57;;;;;;;7.10;3.00;;;8.80;67.20;;;;;;6106786;29;20040;-64
2022/11/23 07:07:59;;;;;;;7.68;3.45;;;8.90;67.30;;;;;;6104404;29;20050;-64
2022/11/23 07:11:02;;;;;;;9.27;3.95;;;8.90;67.10;;;;;;6089502;29;20079;-64
2022/11/23 07:14:03;;;;;;;6.30;3.28;;;9.00;66.90;;;;;;6090382;29;20032;-63
2022/11/23 07:17:04;;;;;;;7.60;3.28;;;9.10;66.70;;;;;;6089798;29;20059;-63
2022/11/23 07:20:08;;;;;;;9.20;3.10;;;9.10;66.50;;;;;;6096066;29;20046;-63
2022/11/23 07:23:10;;;;;;;11.43;3.33;;;9.10;66.20;;;;;;6120887;29;20069;-63
2022/11/23 07:26:13;;;;;;;16.98;3.58;;;9.10;66.20;;;;;;6097701;29;20070;-63
2022/11/23 07:29:14;;;;;;;7.35;3.42;;;9.10;66.20;;;;;;6108543;29;20035;-63
2022/11/23 07:32:15;;;;;;;14.25;3.20;;;9.10;66.30;;;;;;6107467;29;20044;-64
2022/11/23 07:35:17;;;;;;;7.97;3.60;;;9.10;66.20;;;;;;6106997;29;20054;-63
2022/11/23 07:38:19;;;;;;;9.65;3.90;;;9.10;66.20;;;;;;6121207;29;20122;-63
2022/11/23 07:41:21;;;;;;;10.45;3.63;;;9.10;66.10;;;;;;6122748;29;20060;-63
2022/11/23 07:44:54;;;;;;;11.18;3.60;;;9.20;66.20;;;;;;6000205;29;20065;-63
2022/11/23 07:48:03;;;;;;;8.38;3.47;;;9.20;66.20;;;;;;5988498;29;20125;-63
2022/11/23 07:51:04;;;;;;;7.53;3.38;;;9.20;66.00;;;;;;5990214;29;20041;-62
2022/11/23 07:54:05;;;;;;;9.65;3.22;;;9.20;66.00;;;;;;6001782;29;20053;-62
2022/11/23 07:57:06;;;;;;;8.65;3.88;;;9.30;66.00;;;;;;5987002;29;20056;-65
2022/11/23 08:00:07;;;;;;;7.38;3.15;;;9.30;65.80;;;;;;6001671;29;20357;-65
2022/11/23 08:03:14;;;;;;;7.05;4.03;;;9.40;65.70;;;;;;5991065;29;20050;-62
2022/11/23 08:06:15;;;;;;;11.02;4.00;;;9.40;65.70;;;;;;5988014;29;20519;-63
2022/11/23 08:09:16;;;;;;;12.93;3.55;;;9.40;65.60;;;;;;6005214;29;20476;-63
2022/11/23 08:12:17;;;;;;;9.85;3.55;;;9.50;65.50;;;;;;6005272;29;20154;-63
2022/11/23 08:15:18;;;;;;;15.38;4.30;;;9.50;65.10;;;;;;6006301;29;20128;-63
2022/11/23 08:18:19;;;;;;;8.27;3.70;;;9.50;64.90;;;;;;6006990;29;20145;-64
2022/11/23 08:21:21;;;;;;;6.78;3.55;;;9.50;65.00;;;;;;6113060;29;20044;-63
2022/11/23 08:24:21;;;;;;;11.10;3.72;;;9.40;65.90;;;;;;6110489;29;20484;-63
2022/11/23 08:27:22;;;;;;;8.13;4.35;;;9.40;65.00;;;;;;6127061;29;20067;-64
2022/11/23 08:30:24;;;;;;;6.85;3.03;;;9.50;65.10;;;;;;6126591;29;20027;-64
2022/11/23 08:33:27;;;;;;;8.68;3.65;;;9.50;65.00;;;;;;6125612;29;20044;-64
2022/11/23 08:36:27;;;;;;;9.98;4.38;;;9.60;65.20;;;;;;6125068;29;20039;-63
2022/11/23 08:39:28;;;;;;;19.75;5.90;;;9.60;65.20;;;;;;6126464;29;20040;-63
2022/11/23 08:42:29;;;;;;;16.90;5.28;;;9.70;65.00;;;;;;6125684;29;20036;-65
2022/11/23 08:45:30;;;;;;;11.15;5.97;;;9.80;64.80;;;;;;6123900;29;20043;-63
2022/11/23 08:48:31;;;;;;;19.30;4.55;;;9.80;64.60;;;;;;6107219;29;20458;-63
2022/11/23 08:51:32;;;;;;;9.88;4.15;;;9.90;64.50;;;;;;6122706;29;20183;-63
2022/11/23 08:54:33;;;;;;;6.47;3.40;;;9.90;64.40;;;;;;6108490;29;20051;-64
2022/11/23 08:57:34;;;;;;;5.75;3.45;;;9.90;64.30;;;;;;6124035;29;20518;-64
2022/11/23 09:00:35;;;;;;;6.55;3.47;;;10.00;64.20;;;;;;6122888;29;20067;-63
2022/11/23 09:03:36;;;;;;;6.50;3.42;;;10.10;63.90;;;;;;6106518;29;20122;-63
2022/11/23 09:06:37;;;;;;;13.25;3.47;;;10.10;63.90;;;;;;6106422;29;20051;-64
2022/11/23 09:09:38;;;;;;;9.45;3.08;;;10.30;63.90;;;;;;6105477;29;20024;-63
2022/11/23 09:12:39;;;;;;;5.70;3.20;;;10.40;63.70;;;;;;6104883;29;20038;-64
2022/11/23 09:15:41;;;;;;;8.25;3.72;;;10.50;63.50;;;;;;6122219;29;20068;-63
2022/11/23 09:18:42;;;;;;;8.93;3.53;;;10.60;63.30;;;;;;6107460;29;20090;-64
2022/11/23 09:21:43;;;;;;;4.57;2.50;;;10.70;62.90;;;;;;6107755;29;20361;-65
2022/11/23 09:24:44;;;;;;;6.40;3.05;;;10.80;62.30;;;;;;6108427;29;20091;-65
2022/11/23 09:27:45;;;;;;;8.52;3.72;;;10.80;62.10;;;;;;6124435;29;20043;-64
2022/11/23 09:30:46;;;;;;;7.22;3.30;;;10.70;61.90;;;;;;6107739;29;20467;-63
2022/11/23 09:33:51;;;;;;;9.15;3.15;;;10.70;62.10;;;;;;6107271;29;20039;-64
2022/11/23 09:36:55;;;;;;;8.88;3.22;;;10.80;62.00;;;;;;6107491;29;20043;-64
2022/11/23 09:39:55;;;;;;;11.52;4.28;;;10.80;61.90;;;;;;6107489;29;20043;-63
2022/11/23 09:43:46;;;;;;;8.85;2.92;;;10.90;61.80;;;;;;6091131;29;20047;-65
2022/11/23 09:47:04;;;;;;;6.30;3.25;;;10.90;61.50;;;;;;6029317;29;20045;-64
2022/11/23 09:50:05;;;;;;;11.68;4.03;;;10.90;61.40;;;;;;6027307;29;20033;-63
2022/11/23 09:53:12;;;;;;;7.13;3.15;;;10.90;61.40;;;;;;6030066;29;20049;-65
2022/11/23 09:56:31;;;;;;;7.07;3.30;;;10.90;61.40;;;;;;6025673;29;20045;-64
2022/11/23 09:59:38;;;;;;;;;;;10.90;61.30;;;;;;6018763;29;20384;-64
2022/11/23 10:02:40;;;;;;;10.00;3.45;;;11.00;61.50;;;;;;6029154;29;20416;-63
2022/11/23 10:05:55;;;;;;;10.65;4.45;;;11.00;61.00;;;;;;6034221;29;20574;-63
2022/11/23 10:09:23;;;;;;;16.38;4.03;;;11.00;60.80;;;;;;6017493;29;20044;-63
2022/11/23 10:12:33;;;;;;;8.50;3.42;;;11.00;61.00;;;;;;6018061;29;20041;-64
2022/11/23 10:15:38;;;;;;;7.90;2.92;;;11.00;61.20;;;;;;6030473;29;20033;-64
2022/11/23 10:18:54;;;;;;;5.13;2.88;;;11.00;60.80;;;;;;6106929;29;20031;-63
2022/11/23 10:22:21;;;;;;;9.27;2.78;;;11.00;60.80;;;;;;6104260;29;20068;-65
2022/11/23 10:25:23;;;;;;;7.00;2.95;;;11.00;60.70;;;;;;6118743;29;20040;-64
2022/11/23 10:28:27;;;;;;;4.80;2.83;;;11.00;60.50;;;;;;6106112;29;20039;-64
2022/11/23 10:31:29;;;;;;;12.30;3.80;;;11.00;60.40;;;;;;6118677;29;20048;-63
2022/11/23 10:34:46;;;;;;;5.72;3.20;;;11.10;60.60;;;;;;6119671;29;20094;-63
2022/11/23 10:37:47;;;;;;;5.35;3.10;;;11.10;61.20;;;;;;6119281;29;20111;-63
2022/11/23 10:41:06;;;;;;;7.95;3.63;;;11.20;60.50;;;;;;6120005;29;20444;-64
2022/11/23 10:44:28;;;;;;;9.18;3.25;;;11.30;60.40;;;;;;6117162;29;20491;-64
2022/11/23 10:47:49;;;;;;;14.20;4.07;;;11.30;60.30;;;;;;6118324;29;20369;-65
2022/11/23 10:50:50;;;;;;;9.43;4.22;;;11.30;60.00;;;;;;6120585;29;20083;-65
2022/11/23 10:54:05;;;;;;;8.75;4.28;;;11.30;59.80;;;;;;6093316;29;20048;-64
2022/11/23 10:57:32;;;;;;;11.50;4.20;;;11.30;59.90;;;;;;6121367;29;20099;-64
2022/11/23 11:00:33;;;;;;;7.35;4.10;;;11.30;60.10;;;;;;6116806;29;20059;-64
2022/11/23 11:03:34;;;;;;;18.63;4.72;;;11.40;60.00;;;;;;6117407;29;20036;-63
2022/11/23 11:06:35;;;;;;;9.02;3.85;;;11.40;60.10;;;;;;6120972;29;20047;-64
2022/11/23 11:09:38;;;;;;;8.05;3.55;;;11.50;60.10;;;;;;6088400;29;20039;-64
2022/11/23 11:12:50;;;;;;;9.70;4.32;;;11.50;60.10;;;;;;6119066;29;20036;-65
2022/11/23 11:16:21;;;;;;;13.68;4.78;;;11.50;60.20;;;;;;6118587;29;20036;-65
2022/11/23 11:19:34;;;;;;;10.85;3.50;;;11.60;60.20;;;;;;6117317;29;20042;-65
2022/11/23 11:22:36;;;;;;;14.57;5.47;;;11.80;60.00;;;;;;6104162;29;20036;-64
2022/11/23 11:25:38;;;;;;;24.35;5.13;;;11.80;59.90;;;;;;6102940;29;20121;-65
2022/11/23 11:28:43;;;;;;;8.48;3.83;;;11.90;59.80;;;;;;6097182;29;20039;-63
2022/11/23 11:31:46;;;;;;;9.43;4.03;;;12.00;59.70;;;;;;6098271;29;20031;-64
2022/11/23 11:35:09;;;;;;;11.95;3.70;;;12.10;59.60;;;;;;6117862;29;20054;-65
2022/11/23 11:38:32;;;;;;;8.05;3.97;;;12.20;59.10;;;;;;6116005;29;20122;-63
2022/11/23 11:41:34;;;;;;;6.65;3.05;;;12.10;58.80;;;;;;6116346;29;20039;-63
2022/11/23 11:44:40;;;;;;;9.95;3.70;;;12.10;59.00;;;;;;6101574;29;20050;-64
2022/11/23 11:47:49;;;;;;;28.58;3.58;;;12.10;59.00;;;;;;6117742;29;20147;-64
2022/11/23 11:50:58;;;;;;;9.77;3.90;;;12.10;58.90;;;;;;6102097;29;20063;-64
2022/11/23 11:54:10;;;;;;;9.05;3.80;;;12.10;58.70;;;;;;6118062;29;20097;-62
2022/11/23 11:57:26;;;;;;;11.52;3.90;;;12.10;58.90;;;;;;6117267;29;20032;-63
2022/11/23 12:00:29;;;;;;;13.18;4.28;;;12.10;59.00;;;;;;6117015;29;20036;-64
2022/11/23 12:03:33;;;;;;;12.27;4.20;;;12.20;58.90;;;;;;6117948;29;20122;-64
2022/11/23 12:06:41;;;;;;;9.60;3.33;;;12.30;58.80;;;;;;6102684;29;20123;-64
2022/11/23 12:09:49;;;;;;;14.05;4.38;;;12.30;58.60;;;;;;6118622;29;20043;-63
2022/11/23 12:12:50;;;;;;;9.55;4.60;;;12.30;58.80;;;;;;6101306;29;20373;-64
2022/11/23 12:16:09;;;;;;;11.55;3.90;;;12.30;58.80;;;;;;6100986;29;20032;-63
2022/11/23 12:19:16;;;;;;;6.35;3.28;;;12.30;59.00;;;;;;6114464;29;20083;-65
2022/11/23 12:22:38;;;;;;;7.45;3.55;;;12.40;59.10;;;;;;6117884;29;20464;-63
2022/11/23 12:26:01;;;;;;;7.30;3.78;;;12.40;59.10;;;;;;6117047;29;20055;-64
2022/11/23 12:29:14;;;;;;;8.50;3.58;;;12.50;59.00;;;;;;6112754;29;20052;-64
2022/11/23 12:32:54;;;;;;;9.95;3.70;;;12.50;58.80;;;;;;6117175;29;20357;-66
2022/11/23 12:36:17;;;;;;;11.95;4.85;;;12.50;58.70;;;;;;6101125;29;20212;-67
2022/11/23 12:39:33;;;;;;;10.02;3.92;;;12.40;58.60;;;;;;6116629;29;20042;-65
2022/11/23 12:42:47;;;;;;;9.20;3.83;;;12.50;58.70;;;;;;6115301;29;20043;-64
2022/11/23 12:46:00;;;;;;;8.63;3.60;;;12.40;58.70;;;;;;6115687;29;20043;-64
2022/11/23 12:49:32;;;;;;;7.90;3.55;;;12.40;58.90;;;;;;6118822;29;20094;-63
2022/11/23 12:52:46;;;;;;;8.38;3.60;;;12.40;58.90;;;;;;6102011;29;20468;-64
2022/11/23 12:56:13;;;;;;;21.92;5.63;;;12.40;59.00;;;;;;6119163;29;20353;-63
2022/11/23 12:59:16;;;;;;;8.93;3.78;;;12.30;59.20;;;;;;6120923;29;20052;-64
2022/11/23 13:02:55;;;;;;;9.57;4.15;;;12.30;59.40;;;;;;6122356;29;20036;-64
2022/11/23 13:06:15;;;;;;;16.73;6.47;;;12.30;59.50;;;;;;6116776;29;20098;-63
2022/11/23 13:09:41;;;;;;;15.52;6.45;;;12.30;59.60;;;;;;6120471;29;20524;-64
2022/11/23 13:13:03;;;;;;;10.43;4.82;;;12.40;59.70;;;;;;6118582;29;20046;-63
2022/11/23 13:16:17;;;;;;;14.70;4.93;;;12.40;59.80;;;;;;6119440;29;20074;-64
2022/11/23 13:19:41;;;;;;;9.73;3.92;;;12.40;59.90;;;;;;6118565;29;20040;-64
2022/11/23 13:22:44;;;;;;;17.58;3.78;;;12.40;60.00;;;;;;6091346;29;20113;-64
2022/11/23 13:26:13;;;;;;;8.00;3.58;;;12.40;60.00;;;;;;6118464;29;20480;-64
2022/11/23 13:29:57;;;;;;;8.82;4.57;;;12.50;60.00;;;;;;6120325;29;20054;-63
2022/11/23 13:32:59;;;;;;;6.78;2.60;;;12.50;60.00;;;;;;6100611;29;20040;-64
2022/11/23 13:36:00;;;;;;;11.48;4.00;;;12.50;59.90;;;;;;6121566;29;20099;-65
2022/11/23 13:39:02;;;;;;;13.35;4.95;;;12.50;59.80;;;;;;6104681;29;20043;-64
2022/11/23 13:42:04;;;;;;;12.57;4.50;;;12.50;59.80;;;;;;6113192;29;20052;-64
2022/11/23 13:45:38;;;;;;;21.98;6.78;;;12.40;59.80;;;;;;6105688;29;20126;-64
2022/11/23 13:48:44;;;;;;;14.40;4.65;;;12.40;60.00;;;;;;6002757;29;20058;-64
2022/11/23 13:52:24;;;;;;;18.48;4.32;;;12.30;60.00;;;;;;6003670;29;20056;-65
2022/11/23 13:55:31;;;;;;;8.55;3.10;;;12.30;60.50;;;;;;6001065;29;20246;-65
2022/11/23 13:58:37;;;;;;;15.80;4.03;;;12.40;60.50;;;;;;5988956;29;20038;-64
2022/11/23 14:01:56;;;;;;;11.23;4.22;;;12.40;60.60;;;;;;5987452;29;20107;-64
2022/11/23 14:05:48;;;;;;;6.68;3.65;;;12.40;60.70;;;;;;6000698;29;20042;-65
2022/11/23 14:08:58;;;;;;;9.20;4.18;;;12.30;61.10;;;;;;5963003;29;20042;-64
2022/11/23 14:12:10;;;;;;;5.60;2.90;;;12.30;61.50;;;;;;5948776;29;20038;-64
2022/11/23 14:15:14;;;;;;;8.45;3.42;;;12.30;61.70;;;;;;5961705;29;20425;-64
2022/11/23 14:18:26;;;;;;;12.95;4.05;;;12.30;61.70;;;;;;5934552;29;20096;-64
2022/11/23 14:21:39;;;;;;;8.85;3.83;;;12.30;61.70;;;;;;5960626;29;20099;-64
2022/11/23 14:25:11;;;;;;;10.25;3.70;;;12.30;61.70;;;;;;5981334;29;20042;-64
2022/11/23 14:28:36;;;;;;;11.20;4.22;;;12.40;61.70;;;;;;6006558;29;20053;-65
2022/11/23 14:31:45;;;;;;;16.40;4.13;;;12.40;61.60;;;;;;5986311;29;20876;-65
2022/11/23 14:35:15;;;;;;;9.98;4.60;;;12.40;61.80;;;;;;6006682;29;20356;-64
2022/11/23 14:38:37;;;;;;;8.30;4.07;;;12.40;62.10;;;;;;5987098;29;20054;-63
2022/11/23 14:41:41;;;;;;;6.93;3.97;;;12.30;62.30;;;;;;6005308;29;20036;-63
2022/11/23 14:44:43;;;;;;;8.70;3.83;;;12.30;62.50;;;;;;6070730;29;20041;-64
2022/11/23 14:47:44;;;;;;;10.57;4.35;;;12.30;62.60;;;;;;6090394;29;20135;-64
2022/11/23 14:50:57;;;;;;;8.60;4.40;;;12.30;62.70;;;;;;6096628;29;20528;-63
2022/11/23 14:54:01;;;;;;;8.45;3.90;;;12.20;62.70;;;;;;6094619;29;20099;-64
2022/11/23 14:57:03;;;;;;;12.68;4.53;;;12.30;62.90;;;;;;6094509;29;20126;-64
2022/11/23 15:00:05;;;;;;;10.13;4.03;;;12.20;62.90;;;;;;6078422;29;20044;-64
2022/11/23 15:03:14;;;;;;;12.57;3.10;;;12.20;63.00;;;;;;6095376;29;20094;-66
2022/11/23 15:06:17;;;;;;;8.52;3.42;;;12.20;63.30;;;;;;6092787;29;20462;-66
2022/11/23 15:09:51;;;;;;;9.68;3.53;;;12.20;63.40;;;;;;6075655;29;20299;-64
2022/11/23 15:12:52;;;;;;;5.95;3.28;;;12.20;63.50;;;;;;6092335;29;20035;-65
2022/11/23 15:15:55;;;;;;;7.55;3.38;;;12.10;63.40;;;;;;6094775;29;20547;-64
2022/11/23 15:18:56;;;;;;;11.90;3.25;;;12.10;63.80;;;;;;6094119;29;20107;-64
2022/11/23 15:21:59;;;;;;;10.35;3.85;;;12.10;64.00;;;;;;6094358;29;20047;-65
2022/11/23 15:25:09;;;;;;;6.68;3.60;;;12.00;64.30;;;;;;6094378;29;20570;-66
2022/11/23 15:28:18;;;;;;;8.18;3.90;;;12.00;64.60;;;;;;6090289;29;20537;-63
2022/11/23 15:31:40;;;;;;;13.77;4.72;;;12.00;64.80;;;;;;6095558;29;20044;-64
2022/11/23 15:34:42;;;;;;;13.80;4.25;;;11.90;65.00;;;;;;6093735;29;20032;-65
2022/11/23 15:37:46;;;;;;;8.52;4.20;;;12.00;65.20;;;;;;6095483;29;20044;-64
2022/11/23 15:40:48;;;;;;;9.82;4.07;;;12.00;65.40;;;;;;6095175;29;20369;-65
2022/11/23 15:43:58;;;;;;;8.55;4.00;;;11.90;65.30;;;;;;6094855;29;20108;-65
2022/11/23 15:47:05;;;;;;;8.80;4.32;;;11.90;65.40;;;;;;6109197;29;20115;-64
2022/11/23 15:50:09;;;;;;;5.73;3.60;;;11.90;65.40;;;;;;6092466;29;20315;-65
2022/11/23 15:53:10;;;;;;;20.95;4.22;;;11.90;65.40;;;;;;6096970;29;20390;-65
2022/11/23 15:56:22;;;;;;;6.93;3.45;;;11.90;65.30;;;;;;6092918;29;20028;-65
2022/11/23 15:59:39;;;;;;;10.55;3.45;;;11.80;65.50;;;;;;6109869;29;20466;-65
2022/11/23 16:02:40;;;;;;;10.10;3.65;;;11.70;65.50;;;;;;6095207;29;20048;-66
2022/11/23 16:05:42;;;;;;;6.85;3.55;;;11.70;65.80;;;;;;6094633;29;20080;-64
2022/11/23 16:08:43;;;;;;;13.23;3.25;;;11.70;65.90;;;;;;6095163;29;20055;-64
2022/11/23 16:11:45;;;;;;;7.80;3.40;;;11.70;66.00;;;;;;6094863;29;20051;-64